createdAt,value
2024-03-03T00:00:46.704Z,1.80
2024-03-03T00:03:13.769Z,1.90
2024-03-03T00:05:40.725Z,1.83
2024-03-03T00:08:07.840Z,2.23
2024-03-03T00:10:34.850Z,1.45
2024-03-03T00:13:02.049Z,2.10
2024-03-03T00:15:28.972Z,1.65
2024-03-03T00:17:55.919Z,1.80
2024-03-03T00:20:22.950Z,2.13
2024-03-03T00:22:49.868Z,1.70
2024-03-03T00:25:16.807Z,2.47
2024-03-03T00:27:44.556Z,2.40
2024-03-03T00:30:12.658Z,2.55
2024-03-03T00:32:39.632Z,1.98
2024-03-03T00:35:07.098Z,2.40
2024-03-03T00:37:34.137Z,1.85
2024-03-03T00:40:01.150Z,2.17
2024-03-03T00:42:28.652Z,2.00
2024-03-03T00:44:55.443Z,2.10
2024-03-03T00:47:22.262Z,1.90
2024-03-03T00:49:50.743Z,2.05
2024-03-03T00:52:18.036Z,2.30
2024-03-03T00:54:45.237Z,1.70
2024-03-03T00:57:12.175Z,2.23
2024-03-03T00:59:39.020Z,2.08
2024-03-03T01:02:05.963Z,1.90
2024-03-03T01:04:32.970Z,1.80
2024-03-03T01:06:59.888Z,1.92
2024-03-03T01:09:26.817Z,2.17
2024-03-03T01:11:55.410Z,2.20
2024-03-03T01:14:23.668Z,2.15
2024-03-03T01:16:50.726Z,1.65
2024-03-03T01:19:17.876Z,2.10
2024-03-03T01:21:44.965Z,2.10
2024-03-03T01:24:11.814Z,2.10
2024-03-03T01:26:39.122Z,2.40
2024-03-03T01:29:06.038Z,2.03
2024-03-03T01:31:33.510Z,2.30
2024-03-03T01:34:00.710Z,2.05
2024-03-03T01:36:29.271Z,2.30
2024-03-03T01:38:56.223Z,1.80
2024-03-03T01:41:23.288Z,1.90
2024-03-03T01:43:50.176Z,1.95
2024-03-03T01:46:17.121Z,2.00
2024-03-03T01:48:44.477Z,1.75
2024-03-03T01:51:11.351Z,1.92
2024-03-03T01:53:38.438Z,2.60
2024-03-03T01:56:05.876Z,2.25
2024-03-03T01:58:32.854Z,2.00
2024-03-03T02:01:00.898Z,1.85
2024-03-03T02:03:27.922Z,1.92
2024-03-03T02:05:54.935Z,1.98
2024-03-03T02:08:21.783Z,2.00
2024-03-03T02:10:48.786Z,1.85
2024-03-03T02:13:15.864Z,2.00
2024-03-03T02:15:42.819Z,1.73
2024-03-03T02:18:10.008Z,1.88
2024-03-03T02:20:37.353Z,2.13
2024-03-03T02:23:04.484Z,2.20
2024-03-03T02:25:31.435Z,1.70
2024-03-03T02:27:58.420Z,2.25
2024-03-03T02:30:25.532Z,1.95
2024-03-03T02:32:52.477Z,2.03
2024-03-03T02:35:19.380Z,2.13
2024-03-03T02:37:49.231Z,2.45
2024-03-03T02:40:16.241Z,2.30
2024-03-03T02:42:43.207Z,1.52
2024-03-03T02:45:10.244Z,1.65
2024-03-03T02:47:37.341Z,1.98
2024-03-03T02:50:05.559Z,1.70
2024-03-03T02:52:32.487Z,1.85
2024-03-03T02:54:59.587Z,1.70
2024-03-03T02:57:26.646Z,2.28
2024-03-03T02:59:55.628Z,1.70
2024-03-03T03:02:22.762Z,1.92
2024-03-03T03:04:49.840Z,2.42
2024-03-03T03:07:16.942Z,2.30
2024-03-03T03:09:46.787Z,2.15
2024-03-03T03:12:13.762Z,2.00
2024-03-03T03:14:41.042Z,1.92
2024-03-03T03:17:08.966Z,1.80
2024-03-03T03:19:35.771Z,2.35
2024-03-03T03:22:02.822Z,1.60
2024-03-03T03:24:31.096Z,1.58
2024-03-03T03:26:58.122Z,1.40
2024-03-03T03:29:24.977Z,1.60
2024-03-03T03:31:52.077Z,1.40
2024-03-03T03:34:18.970Z,1.70
2024-03-03T03:36:45.973Z,1.70
2024-03-03T03:39:16.782Z,1.75
2024-03-03T03:41:47.543Z,1.83
2024-03-03T03:44:14.787Z,1.63
2024-03-03T03:46:42.646Z,1.85
2024-03-03T03:49:13.822Z,1.90
2024-03-03T03:51:41.146Z,1.73
2024-03-03T03:54:08.376Z,1.55
2024-03-03T03:56:35.379Z,1.75
2024-03-03T03:59:02.440Z,1.70
2024-03-03T04:01:29.795Z,1.70
2024-03-03T04:03:57.342Z,1.67
2024-03-03T04:06:28.502Z,1.80
2024-03-03T04:08:55.700Z,1.73
2024-03-03T04:11:22.788Z,2.13
2024-03-03T04:13:50.381Z,1.98
2024-03-03T04:16:17.960Z,2.15
2024-03-03T04:18:45.618Z,1.70
2024-03-03T04:21:12.612Z,1.80
2024-03-03T04:23:39.633Z,1.85
2024-03-03T04:26:07.399Z,1.50
2024-03-03T04:28:34.648Z,1.90
2024-03-03T04:31:08.539Z,1.95
2024-03-03T04:33:35.755Z,1.77
2024-03-03T04:36:03.164Z,1.70
2024-03-03T04:38:29.994Z,1.40
2024-03-03T04:40:56.833Z,1.40
2024-03-03T04:43:23.704Z,1.90
2024-03-03T04:45:50.836Z,1.70
2024-03-03T04:48:17.775Z,1.58
2024-03-03T04:50:44.802Z,1.83
2024-03-03T04:53:11.746Z,1.77
2024-03-03T04:55:38.705Z,2.00
2024-03-03T04:58:05.650Z,2.22
2024-03-03T05:00:33.580Z,2.10
2024-03-03T05:03:00.543Z,1.75
2024-03-03T05:05:27.465Z,1.90
2024-03-03T05:07:54.371Z,2.10
2024-03-03T05:10:21.662Z,2.45
2024-03-03T05:12:48.625Z,1.83
2024-03-03T05:15:15.928Z,1.83
2024-03-03T05:17:42.870Z,2.10
2024-03-03T05:20:10.095Z,2.00
2024-03-03T05:22:38.250Z,2.33
2024-03-03T05:25:10.242Z,1.65
2024-03-03T05:27:37.620Z,1.75
2024-03-03T05:30:05.096Z,2.10
2024-03-03T05:32:32.078Z,1.77
2024-03-03T05:34:59.086Z,2.17
2024-03-03T05:37:26.520Z,1.95
2024-03-03T05:39:53.492Z,1.90
2024-03-03T05:42:20.325Z,1.65
2024-03-03T05:44:48.006Z,1.60
2024-03-03T05:47:14.977Z,2.08
2024-03-03T05:49:41.890Z,1.52
2024-03-03T05:52:09.108Z,2.13
2024-03-03T05:54:36.112Z,1.85
2024-03-03T05:57:03.209Z,2.10
2024-03-03T05:59:30.102Z,2.15
2024-03-03T06:01:57.105Z,1.90
2024-03-03T06:04:24.158Z,1.77
2024-03-03T06:06:51.148Z,2.10
2024-03-03T06:09:18.047Z,2.50
2024-03-03T06:11:44.944Z,2.40
2024-03-03T06:14:11.889Z,1.95
2024-03-03T06:16:39.012Z,2.15
2024-03-03T06:19:06.120Z,1.88
2024-03-03T06:21:33.661Z,1.73
2024-03-03T06:24:00.505Z,2.17
2024-03-03T06:26:30.401Z,2.35
2024-03-03T06:28:57.594Z,2.53
2024-03-03T06:31:24.508Z,2.50
2024-03-03T06:33:52.169Z,2.13
2024-03-03T06:36:19.857Z,2.35
2024-03-03T06:38:46.986Z,3.20
2024-03-03T06:41:14.594Z,2.40
2024-03-03T06:43:44.995Z,2.10
2024-03-03T06:46:12.310Z,2.25
2024-03-03T06:48:39.576Z,2.50
2024-03-03T06:51:06.993Z,1.88
2024-03-03T06:53:40.416Z,1.80
2024-03-03T06:56:17.244Z,2.30
2024-03-03T06:58:45.711Z,1.88
2024-03-03T07:01:13.577Z,1.58
2024-03-03T07:03:49.452Z,1.83
2024-03-03T07:06:16.403Z,1.85
2024-03-03T07:08:43.262Z,1.98
2024-03-03T07:11:10.267Z,1.75
2024-03-03T07:13:37.280Z,1.80
2024-03-03T07:16:04.412Z,2.40
2024-03-03T07:18:31.399Z,2.55
2024-03-03T07:20:59.009Z,2.40
2024-03-03T07:23:25.872Z,2.30
2024-03-03T07:25:52.782Z,1.95
2024-03-03T07:28:19.657Z,1.80
2024-03-03T07:30:46.788Z,1.52
2024-03-03T07:33:13.775Z,1.80
2024-03-03T07:35:40.821Z,1.50
2024-03-03T07:38:07.703Z,1.60
2024-03-03T07:40:38.563Z,1.60
2024-03-03T07:43:06.574Z,1.83
2024-03-03T07:45:33.752Z,2.03
2024-03-03T07:48:00.737Z,3.03
2024-03-03T07:50:27.708Z,4.70
2024-03-03T07:52:54.592Z,6.80
2024-03-03T07:55:21.617Z,5.70
2024-03-03T07:57:48.642Z,4.67
2024-03-03T08:00:16.064Z,3.10
2024-03-03T08:02:42.986Z,2.30
2024-03-03T08:05:09.959Z,2.17
2024-03-03T08:07:37.288Z,1.40
2024-03-03T08:10:06.440Z,1.53
2024-03-03T08:12:33.442Z,1.30
2024-03-03T08:15:01.593Z,1.27
2024-03-03T08:17:28.567Z,1.20
2024-03-03T08:19:55.461Z,1.37
2024-03-03T08:22:22.380Z,0.93
2024-03-03T08:24:49.444Z,1.03
2024-03-03T08:27:16.407Z,1.03
2024-03-03T08:29:43.293Z,1.10
2024-03-03T08:32:10.391Z,1.10
2024-03-03T08:34:37.718Z,0.90
2024-03-03T08:37:04.693Z,1.00
2024-03-03T08:39:31.667Z,1.30
2024-03-03T08:41:58.773Z,1.10
2024-03-03T08:44:26.120Z,1.10
2024-03-03T08:46:53.410Z,0.90
2024-03-03T08:49:20.879Z,1.20
2024-03-03T08:51:48.095Z,1.23
2024-03-03T08:54:15.102Z,1.87
2024-03-03T08:56:43.409Z,2.00
2024-03-03T08:59:10.252Z,1.30
2024-03-03T09:01:40.204Z,1.57
2024-03-03T09:04:08.042Z,1.20
2024-03-03T09:06:35.885Z,1.80
2024-03-03T09:09:02.855Z,1.20
2024-03-03T09:11:29.895Z,1.20
2024-03-03T09:13:56.830Z,0.90
2024-03-03T09:16:23.734Z,1.10
2024-03-03T09:18:50.742Z,0.90
2024-03-03T09:21:17.773Z,0.90
2024-03-03T09:23:44.688Z,0.90
2024-03-03T09:26:11.540Z,0.60
2024-03-03T09:28:38.733Z,0.50
2024-03-03T09:31:05.764Z,0.60
2024-03-03T09:33:32.887Z,0.63
2024-03-03T09:36:00.059Z,0.40
2024-03-03T09:38:27.015Z,0.50
2024-03-03T09:40:53.936Z,0.90
2024-03-03T09:43:20.854Z,0.80
2024-03-03T09:45:49.369Z,0.60
2024-03-03T09:48:16.266Z,0.77
2024-03-03T09:50:43.869Z,0.60
2024-03-03T09:53:11.018Z,0.60
2024-03-03T09:55:38.752Z,26.03
2024-03-03T09:58:08.574Z,16.40
2024-03-03T10:00:36.318Z,5.23
2024-03-03T10:03:08.030Z,2.40
2024-03-03T10:05:41.057Z,0.80
2024-03-03T10:08:08.529Z,1.00
2024-03-03T10:10:37.511Z,1.07
2024-03-03T10:13:06.020Z,0.87
2024-03-03T10:15:33.198Z,0.70
2024-03-03T10:18:02.859Z,0.60
2024-03-03T10:20:30.599Z,0.60
2024-03-03T10:22:58.577Z,0.60
2024-03-03T10:25:27.187Z,0.70
2024-03-03T10:27:55.367Z,0.80
2024-03-03T10:30:24.245Z,0.90
2024-03-03T10:32:51.391Z,0.70
2024-03-03T10:35:21.389Z,0.60
2024-03-03T10:37:54.982Z,1.03
2024-03-03T10:40:23.025Z,0.50
2024-03-03T10:42:50.320Z,0.70
2024-03-03T10:45:17.477Z,0.60
2024-03-03T10:47:44.565Z,1.10
2024-03-03T10:50:22.794Z,0.87
2024-03-03T10:52:50.605Z,0.60
2024-03-03T10:55:17.814Z,0.73
2024-03-03T10:57:45.711Z,0.90
2024-03-03T11:00:24.077Z,0.80
2024-03-03T11:02:52.964Z,1.10
2024-03-03T11:05:19.908Z,1.17
2024-03-03T11:07:46.974Z,0.50
2024-03-03T11:10:14.848Z,0.50
2024-03-03T11:12:49.204Z,2.50
2024-03-03T11:15:19.879Z,1.17
2024-03-03T11:17:57.887Z,1.30
2024-03-03T11:20:25.593Z,1.13
2024-03-03T11:23:20.892Z,1.13
2024-03-03T11:26:05.082Z,1.10
2024-03-03T11:28:33.332Z,0.93
2024-03-03T11:31:00.261Z,1.00
2024-03-03T11:33:27.841Z,0.70
2024-03-03T11:35:54.903Z,1.00
2024-03-03T11:38:22.442Z,0.77
2024-03-03T11:40:49.870Z,0.73
2024-03-03T11:43:17.342Z,0.60
2024-03-03T11:45:45.580Z,0.63
2024-03-03T11:48:15.501Z,0.70
2024-03-03T11:50:42.573Z,0.70
2024-03-03T11:53:10.841Z,0.80
2024-03-03T11:55:39.743Z,0.50
2024-03-03T11:58:07.770Z,0.80
2024-03-03T12:00:35.576Z,0.70
2024-03-03T12:03:02.521Z,1.07
2024-03-03T12:05:29.599Z,0.50
2024-03-03T12:07:56.976Z,0.47
2024-03-03T12:10:33.770Z,0.40
2024-03-03T12:13:05.538Z,0.83
2024-03-03T12:15:32.613Z,0.70
2024-03-03T12:18:01.381Z,0.50
2024-03-03T12:20:29.364Z,1.30
2024-03-03T12:22:56.407Z,0.50
2024-03-03T12:25:24.761Z,0.83
2024-03-03T12:27:56.624Z,0.60
2024-03-03T12:30:33.222Z,0.60
2024-03-03T12:33:07.790Z,0.70
2024-03-03T12:35:36.018Z,0.93
2024-03-03T12:38:03.128Z,0.40
2024-03-03T12:40:30.157Z,0.60
2024-03-03T12:42:57.216Z,0.83
2024-03-03T12:45:25.534Z,0.70
2024-03-03T12:47:52.477Z,0.87
2024-03-03T12:50:20.325Z,0.90
2024-03-03T12:52:47.609Z,0.83
2024-03-03T12:55:15.210Z,0.50
2024-03-03T12:57:43.070Z,0.40
2024-03-03T13:00:19.771Z,0.80
2024-03-03T13:02:46.811Z,0.73
2024-03-03T13:05:17.858Z,0.80
2024-03-03T13:07:51.973Z,0.80
2024-03-03T13:10:23.575Z,0.70
2024-03-03T13:12:51.597Z,0.70
2024-03-03T13:15:22.412Z,0.70
2024-03-03T13:18:09.052Z,0.63
2024-03-03T13:20:36.410Z,0.70
2024-03-03T13:23:12.093Z,0.50
2024-03-03T13:25:40.650Z,0.60
2024-03-03T13:28:07.868Z,1.17
2024-03-03T13:30:35.958Z,0.90
2024-03-03T13:33:03.139Z,1.00
2024-03-03T13:35:30.069Z,0.73
2024-03-03T13:37:57.015Z,0.50
2024-03-03T13:40:24.123Z,0.70
2024-03-03T13:42:51.022Z,0.80
2024-03-03T13:45:18.048Z,0.70
2024-03-03T13:47:45.073Z,0.60
2024-03-03T13:50:12.061Z,0.70
2024-03-03T13:52:39.566Z,1.00
2024-03-03T13:55:07.660Z,0.70
2024-03-03T13:57:34.606Z,0.43
2024-03-03T14:00:01.638Z,0.90
2024-03-03T14:02:28.489Z,0.60
2024-03-03T14:04:55.481Z,0.80
2024-03-03T14:07:23.097Z,0.60
2024-03-03T14:09:50.501Z,0.80
2024-03-03T14:12:17.496Z,0.93
2024-03-03T14:14:44.666Z,0.70
2024-03-03T14:17:12.249Z,0.80
2024-03-03T14:19:39.220Z,0.60
2024-03-03T14:22:06.207Z,0.50
2024-03-03T14:24:33.244Z,0.77
2024-03-03T14:27:00.165Z,0.50
2024-03-03T14:29:27.143Z,0.50
2024-03-03T14:31:54.211Z,0.80
2024-03-03T14:34:21.196Z,1.00
2024-03-03T14:36:48.474Z,1.00
2024-03-03T14:39:16.165Z,3.20
2024-03-03T14:41:43.050Z,2.33
2024-03-03T14:44:09.930Z,1.30
2024-03-03T14:46:36.864Z,0.80
2024-03-03T14:49:03.837Z,0.73
2024-03-03T14:51:30.928Z,0.70
2024-03-03T14:53:57.836Z,0.70
2024-03-03T14:56:24.775Z,0.70
2024-03-03T14:58:51.637Z,0.93
2024-03-03T15:01:18.629Z,1.00
2024-03-03T15:03:45.922Z,0.43
2024-03-03T15:06:13.012Z,0.80
2024-03-03T15:08:39.899Z,0.70
2024-03-03T15:11:07.038Z,0.73
2024-03-03T15:13:35.095Z,0.70
2024-03-03T15:16:04.365Z,0.60
2024-03-03T15:18:31.259Z,0.53
2024-03-03T15:20:58.721Z,0.83
2024-03-03T15:23:25.621Z,0.80
2024-03-03T15:25:52.650Z,0.50
2024-03-03T15:28:19.589Z,0.40
2024-03-03T15:30:46.496Z,0.80
2024-03-03T15:33:14.722Z,0.80
2024-03-03T15:35:41.690Z,0.60
2024-03-03T15:38:08.711Z,1.10
2024-03-03T15:40:35.762Z,0.60
2024-03-03T15:43:02.755Z,2.67
2024-03-03T15:45:29.659Z,1.40
2024-03-03T15:47:56.615Z,0.90
2024-03-03T15:50:23.574Z,0.70
2024-03-03T15:52:50.499Z,0.90
2024-03-03T15:55:17.462Z,0.67
2024-03-03T15:57:44.572Z,0.93
2024-03-03T16:00:13.308Z,1.80
2024-03-03T16:02:40.414Z,1.37
2024-03-03T16:05:08.164Z,1.07
2024-03-03T16:07:36.758Z,0.90
2024-03-03T16:10:04.462Z,0.70
2024-03-03T16:12:31.494Z,0.70
2024-03-03T16:14:58.385Z,0.67
2024-03-03T16:17:25.306Z,0.80
2024-03-03T16:19:52.836Z,0.90
2024-03-03T16:22:19.789Z,0.77
2024-03-03T16:24:46.669Z,0.63
2024-03-03T16:27:14.648Z,0.80
2024-03-03T16:29:41.563Z,1.00
2024-03-03T16:32:08.655Z,0.80
2024-03-03T16:34:35.652Z,0.60
2024-03-03T16:37:02.780Z,0.83
2024-03-03T16:39:30.622Z,0.70
2024-03-03T16:41:57.562Z,0.90
2024-03-03T16:44:24.448Z,0.80
2024-03-03T16:46:51.329Z,1.07
2024-03-03T16:49:18.327Z,0.70
2024-03-03T16:51:46.125Z,0.80
2024-03-03T16:54:13.049Z,0.70
2024-03-03T16:56:39.928Z,0.60
2024-03-03T16:59:07.289Z,0.80
2024-03-03T17:01:34.501Z,0.80
2024-03-03T17:04:01.895Z,0.70
2024-03-03T17:06:30.657Z,0.80
2024-03-03T17:08:57.610Z,1.07
2024-03-03T17:11:26.058Z,0.70
2024-03-03T17:13:53.108Z,0.70
2024-03-03T17:16:20.854Z,1.00
2024-03-03T17:18:48.906Z,0.73
2024-03-03T17:21:15.804Z,1.03
2024-03-03T17:23:42.673Z,0.93
2024-03-03T17:26:09.517Z,1.10
2024-03-03T17:28:36.415Z,1.70
2024-03-03T17:31:03.430Z,1.63
2024-03-03T17:33:30.389Z,1.57
2024-03-03T17:35:57.272Z,2.00
2024-03-03T17:38:24.323Z,2.00
2024-03-03T17:40:51.246Z,2.47
2024-03-03T17:43:18.081Z,2.30
2024-03-03T17:45:45.063Z,2.50
2024-03-03T17:48:12.024Z,1.47
2024-03-03T17:50:38.916Z,1.87
2024-03-03T17:53:05.803Z,1.50
2024-03-03T17:55:32.849Z,1.10
2024-03-03T17:57:59.827Z,1.00
2024-03-03T18:00:26.888Z,1.17
2024-03-03T18:02:53.943Z,0.87
2024-03-03T18:05:21.194Z,0.80
2024-03-03T18:07:48.173Z,0.90
2024-03-03T18:10:15.120Z,0.80
2024-03-03T18:12:42.149Z,2.30
2024-03-03T18:15:09.548Z,1.80
2024-03-03T18:17:39.823Z,1.30
2024-03-03T18:20:08.256Z,1.20
2024-03-03T18:22:35.454Z,1.30
2024-03-03T18:25:05.551Z,1.20
2024-03-03T18:27:32.403Z,1.33
2024-03-03T18:29:59.354Z,0.80
2024-03-03T18:32:26.307Z,0.93
2024-03-03T18:34:53.277Z,0.80
2024-03-03T18:37:20.204Z,1.03
2024-03-03T18:39:47.167Z,0.93
2024-03-03T18:42:15.861Z,0.60
2024-03-03T18:44:42.753Z,0.97
2024-03-03T18:47:09.761Z,1.10
2024-03-03T18:49:36.965Z,0.80
2024-03-03T18:52:04.592Z,1.10
2024-03-03T18:54:31.560Z,0.90
2024-03-03T18:56:58.765Z,0.70
2024-03-03T18:59:25.703Z,1.00
2024-03-03T19:01:56.422Z,0.80
2024-03-03T19:04:23.999Z,1.03
2024-03-03T19:06:51.514Z,1.20
2024-03-03T19:09:18.477Z,1.63
2024-03-03T19:11:45.971Z,1.90
2024-03-03T19:14:13.506Z,1.93
2024-03-03T19:16:40.766Z,1.90
2024-03-03T19:19:07.828Z,1.70
2024-03-03T19:21:34.830Z,1.93
2024-03-03T19:24:02.599Z,2.10
2024-03-03T19:26:29.516Z,2.00
2024-03-03T19:28:56.362Z,1.73
2024-03-03T19:31:23.405Z,1.50
2024-03-03T19:33:50.731Z,1.77
2024-03-03T19:36:17.775Z,1.30
2024-03-03T19:38:44.812Z,1.60
2024-03-03T19:41:13.084Z,1.57
2024-03-03T19:43:41.443Z,1.60
2024-03-03T19:46:08.484Z,1.30
2024-03-03T19:48:35.412Z,1.40
2024-03-03T19:51:02.299Z,1.30
2024-03-03T19:53:29.187Z,2.10
2024-03-03T19:55:56.088Z,1.53
2024-03-03T19:58:23.237Z,1.83
2024-03-03T20:00:50.407Z,1.90
2024-03-03T20:03:17.442Z,1.80
2024-03-03T20:05:44.352Z,2.03
2024-03-03T20:08:11.189Z,1.70
2024-03-03T20:10:38.787Z,1.20
2024-03-03T20:13:05.927Z,1.47
2024-03-03T20:15:32.999Z,1.70
2024-03-03T20:17:59.946Z,1.70
2024-03-03T20:20:26.780Z,1.60
2024-03-03T20:22:53.688Z,1.80
2024-03-03T20:25:20.740Z,1.50
2024-03-03T20:27:48.257Z,1.97
2024-03-03T20:30:15.641Z,1.63
2024-03-03T20:32:42.623Z,1.63
2024-03-03T20:35:10.680Z,1.30
2024-03-03T20:37:37.731Z,1.83
2024-03-03T20:40:12.734Z,1.83
2024-03-03T20:42:40.616Z,1.93
2024-03-03T20:45:10.399Z,1.73
2024-03-03T20:47:41.740Z,1.67
2024-03-03T20:50:09.996Z,1.70
2024-03-03T20:52:37.753Z,1.90
2024-03-03T20:55:09.192Z,2.43
2024-03-03T20:57:36.887Z,2.50
2024-03-03T21:00:07.773Z,2.10
2024-03-03T21:02:39.918Z,2.70
2024-03-03T21:05:07.448Z,2.13
2024-03-03T21:07:34.937Z,2.47
2024-03-03T21:10:02.593Z,2.07
2024-03-03T21:12:30.026Z,2.30
2024-03-03T21:14:56.904Z,2.50
2024-03-03T21:17:23.798Z,2.30
2024-03-03T21:19:50.826Z,2.70
2024-03-03T21:22:20.937Z,2.47
2024-03-03T21:24:47.979Z,3.33
2024-03-03T21:27:15.007Z,3.30
2024-03-03T21:29:41.977Z,3.97
2024-03-03T21:32:09.138Z,4.00
2024-03-03T21:34:36.142Z,3.40
2024-03-03T21:37:03.122Z,2.97
2024-03-03T21:39:30.174Z,4.33
2024-03-03T21:41:57.309Z,4.80
2024-03-03T21:44:25.785Z,4.53
2024-03-03T21:46:54.073Z,3.20
2024-03-03T21:49:21.012Z,3.03
2024-03-03T21:51:47.950Z,2.70
2024-03-03T21:54:14.910Z,2.13
2024-03-03T21:56:41.885Z,2.70
2024-03-03T21:59:09.319Z,3.07
2024-03-03T22:01:39.997Z,5.30
2024-03-03T22:04:11.473Z,5.57
2024-03-03T22:06:38.359Z,4.63
2024-03-03T22:09:05.689Z,3.90
2024-03-03T22:11:32.667Z,3.03
2024-03-03T22:13:59.754Z,2.23
2024-03-03T22:16:26.664Z,2.60
2024-03-03T22:18:53.553Z,2.77
2024-03-03T22:21:20.547Z,2.30
2024-03-03T22:23:47.978Z,2.63
2024-03-03T22:26:15.007Z,2.97
2024-03-03T22:28:42.515Z,3.03
2024-03-03T22:31:09.621Z,2.80
2024-03-03T22:33:38.058Z,3.50
2024-03-03T22:36:06.174Z,3.60
2024-03-03T22:38:33.166Z,3.43
2024-03-03T22:41:00.088Z,3.90
2024-03-03T22:43:28.514Z,2.90
2024-03-03T22:45:55.755Z,3.20
2024-03-03T22:48:22.623Z,3.17
2024-03-03T22:50:49.608Z,2.97
2024-03-03T22:53:16.735Z,3.20
2024-03-03T22:55:43.640Z,2.87
2024-03-03T22:58:10.678Z,2.47
2024-03-03T23:00:41.315Z,2.10
2024-03-03T23:03:09.289Z,2.53
2024-03-03T23:05:36.224Z,2.40
2024-03-03T23:08:03.760Z,2.67
2024-03-03T23:10:30.691Z,2.93
2024-03-03T23:12:57.618Z,2.60
2024-03-03T23:15:24.607Z,2.20
2024-03-03T23:17:51.573Z,2.93
2024-03-03T23:20:18.637Z,2.80
2024-03-03T23:22:45.507Z,2.07
2024-03-03T23:25:12.478Z,2.30
2024-03-03T23:27:39.513Z,2.40
2024-03-03T23:30:06.802Z,2.10
2024-03-03T23:32:33.859Z,2.77
2024-03-03T23:35:00.997Z,2.03
2024-03-03T23:37:27.971Z,2.23
2024-03-03T23:39:55.015Z,2.00
2024-03-03T23:42:22.068Z,2.53
2024-03-03T23:44:49.189Z,2.47
2024-03-03T23:47:16.166Z,2.50
2024-03-03T23:49:43.306Z,2.90
2024-03-03T23:52:10.219Z,2.20
2024-03-03T23:54:37.173Z,2.43
2024-03-03T23:57:07.156Z,2.00
2024-03-03T23:59:34.258Z,2.60
